< < Back
Terminal Aerodrome Forecast


Current Version              Previous Versions:   1  2  3  4  5  6  7  8  9  

Terminal Aerodrome Forecast

595
FTUS42 KGSP 270531
TAFGSP
TAF
KGSP 270531Z 2706/2806 VRB03KT P6SM SCT070
     FM271000 00000KT P6SM BKN024
     FM271300 21003KT P6SM SCT024
     FM271600 22004KT P6SM BKN040 PROB30 2720/2802 4SM TSRA BKN030CB
     FM280200 24005KT P6SM -SHRA VCTS OVC035CB
     FM280500 26003KT P6SM -SHRA VCTS OVC045CB=



Latest METAR

636
SAUS70 KWBC 270900 RRK
MTRGSP
METAR KGSP 270853Z AUTO 04004KT 10SM BKN055 BKN100 23/19 A3013 RMK AO2
SLP187 T02330189 56002


USA.gov is the U.S. government's official web portal to all federal, state and local government web resources and services.